Time;durP1;ratioP1;P1;durP2;ratioP2;P2;SDS_P1;SDS_P2;PMS_P1;PMS_P2;Temp;Humidity;BMP_temperature;BMP_pressure;BME280_temperature;BME280_humidity;BME280_pressure;Samples;Min_cycle;Max_cycle;Signal;HPM_P1;HPM_P2
2022/04/22 00:00:43;;;;;;;1.15;1.05;;;;;;;8.49;76.30;98495.84;1731961;82;20975;-68
2022/04/22 00:03:11;;;;;;;1.07;0.98;;;;;;;8.52;76.31;98501.28;1717418;82;20967;-68
2022/04/22 00:05:37;;;;;;;0.82;0.82;;;;;;;8.51;76.40;98503.11;1711539;82;21225;-68
2022/04/22 00:08:05;;;;;;;1.00;1.00;;;;;;;8.51;76.47;98506.25;1658154;86;21010;-69
2022/04/22 00:10:32;;;;;;;1.12;0.85;;;;;;;8.52;76.55;98502.61;1644680;85;21094;-68
2022/04/22 00:13:01;;;;;;;0.98;0.93;;;;;;;8.53;76.63;98499.77;1660201;85;20990;-69
2022/04/22 00:15:28;;;;;;;0.80;0.80;;;;;;;8.53;76.69;98508.22;1687456;82;21422;-69
2022/04/22 00:17:55;;;;;;;1.02;0.90;;;;;;;8.52;76.78;98503.44;1724726;82;22093;-68
2022/04/22 00:20:23;;;;;;;1.00;1.00;;;;;;;8.54;76.85;98505.90;1728574;82;21007;-68
2022/04/22 00:22:51;;;;;;;4.97;1.30;;;;;;;8.54;76.93;98501.42;1722934;82;21598;-69
2022/04/22 00:25:18;;;;;;;0.98;0.93;;;;;;;8.55;77.00;98505.70;1705907;82;21114;-68
2022/04/22 00:27:44;;;;;;;1.77;1.00;;;;;;;8.59;76.98;98507.00;1708837;82;20990;-69
2022/04/22 00:30:11;;;;;;;1.25;1.00;;;;;;;8.62;77.01;98506.65;1704913;82;21263;-69
2022/04/22 00:32:39;;;;;;;0.82;0.82;;;;;;;8.64;76.99;98509.94;1733238;82;20972;-67
2022/04/22 00:35:07;;;;;;;1.57;1.00;;;;;;;8.65;77.04;98507.62;1728742;82;20998;-68
2022/04/22 00:37:35;;;;;;;1.62;0.82;;;;;;;8.66;77.15;98504.44;1703586;84;21470;-69
2022/04/22 00:40:03;;;;;;;1.07;1.00;;;;;;;8.68;77.15;98503.25;1703407;84;21133;-69
2022/04/22 00:42:29;;;;;;;1.20;1.10;;;;;;;8.69;77.16;98500.93;1724237;82;21154;-68
2022/04/22 00:44:57;;;;;;;1.47;1.10;;;;;;;8.74;77.14;98502.20;1732583;82;21545;-69
2022/04/22 00:47:25;;;;;;;1.27;1.15;;;;;;;8.76;77.01;98502.34;1732283;82;20987;-68
2022/04/22 00:49:51;;;;;;;1.92;1.40;;;;;;;8.74;76.97;98503.03;1710872;82;21058;-69
2022/04/22 00:52:20;;;;;;;2.37;1.60;;;;;;;8.74;76.98;98504.36;1720761;82;20987;-68
2022/04/22 00:54:48;;;;;;;3.67;1.40;;;;;;;8.71;77.00;98502.06;1728409;82;21217;-69
2022/04/22 00:57:18;;;;;;;1.70;1.55;;;;;;;8.69;76.95;98504.91;1733282;82;20892;-68
2022/04/22 00:59:45;;;;;;;1.40;1.30;;;;;;;8.63;77.19;98501.65;1733620;82;20932;-69
2022/04/22 01:02:12;;;;;;;2.80;1.77;;;;;;;8.62;77.32;98511.95;1724735;82;20946;-68
2022/04/22 01:10:12;;;;;;;2.92;1.52;;;;;;;8.55;77.59;98505.70;1733034;82;21058;-68
2022/04/22 01:12:40;;;;;;;1.30;1.20;;;;;;;8.55;77.71;98503.58;1720607;82;20840;-68
2022/04/22 01:15:10;;;;;;;1.17;0.85;;;;;;;8.55;77.82;98507.55;1707639;82;20951;-69
2022/04/22 01:17:37;;;;;;;1.40;1.05;;;;;;;8.54;77.89;98508.05;1715287;83;20984;-68
2022/04/22 01:20:07;;;;;;;0.70;0.70;;;;;;;8.56;77.98;98507.86;1698398;82;21035;-69
2022/04/22 01:22:34;;;;;;;0.82;0.82;;;;;;;8.56;77.97;98507.86;1718894;83;21478;-69
2022/04/22 01:25:02;;;;;;;0.70;0.70;;;;;;;8.56;77.88;98504.71;1708844;84;20999;-69
2022/04/22 01:27:30;;;;;;;1.27;1.22;;;;;;;8.60;77.89;98505.19;1708907;82;20980;-69
2022/04/22 01:30:02;;;;;;;1.37;1.00;;;;;;;8.60;77.80;98502.53;1719098;83;21035;-69
2022/04/22 01:32:30;;;;;;;0.88;0.88;;;;;;;8.59;77.74;98502.20;1719821;83;20948;-68
2022/04/22 01:34:57;;;;;;;1.00;0.80;;;;;;;8.55;77.80;98501.73;1721232;83;21012;-67
2022/04/22 01:37:24;;;;;;;0.70;0.70;;;;;;;8.55;77.86;98499.60;1715130;83;20968;-68
2022/04/22 01:39:50;;;;;;;1.57;0.98;;;;;;;8.57;77.83;98502.39;1714409;83;20956;-68
2022/04/22 01:42:20;;;;;;;0.60;0.60;;;;;;;8.61;77.81;98506.81;1697521;83;21596;-68
2022/04/22 01:44:49;;;;;;;0.90;0.90;;;;;;;8.62;77.83;98505.82;1694496;84;20999;-68
2022/04/22 01:47:16;;;;;;;1.30;1.00;;;;;;;8.66;77.79;98510.57;1700337;83;20940;-68
2022/04/22 01:49:43;;;;;;;1.12;1.00;;;;;;;8.72;77.74;98513.50;1708421;83;21003;-68
2022/04/22 01:52:10;;;;;;;3.70;1.17;;;;;;;8.73;77.64;98514.66;1687032;85;21080;-68
2022/04/22 01:54:36;;;;;;;2.37;1.35;;;;;;;8.75;77.56;98514.47;1688987;85;21023;-68
2022/04/22 01:57:04;;;;;;;15.32;7.67;;;;;;;8.76;77.63;98514.80;1703873;83;21161;-68
2022/04/22 01:59:33;;;;;;;42.67;18.50;;;;;;;8.77;77.63;98513.77;1737833;81;20994;-67
2022/04/22 02:01:59;;;;;;;56.50;26.48;;;;;;;8.79;77.62;98503.80;1735240;82;20900;-68
2022/04/22 02:04:26;;;;;;;77.32;32.55;;;;;;;8.80;77.60;98508.11;1744688;82;20931;-69
2022/04/22 02:06:53;;;;;;;76.22;33.25;;;;;;;8.82;77.66;98501.63;1732288;82;21493;-69
2022/04/22 02:09:21;;;;;;;88.42;34.55;;;;;;;8.83;77.67;98505.09;1747125;82;21017;-69
2022/04/22 02:11:48;;;;;;;94.42;37.50;;;;;;;8.85;77.66;98499.10;1732571;82;21600;-68
2022/04/22 02:14:14;;;;;;;98.52;38.45;;;;;;;8.85;77.59;98497.78;1748926;82;20923;-68
2022/04/22 02:16:42;;;;;;;95.60;34.88;;;;;;;8.87;77.56;98500.56;1744922;81;21037;-68
2022/04/22 02:19:10;;;;;;;79.67;31.85;;;;;;;8.89;77.53;98497.75;1746426;82;21078;-69
2022/04/22 02:21:37;;;;;;;62.23;24.23;;;;;;;8.92;77.50;98497.36;1747394;82;21164;-68
2022/04/22 02:24:06;;;;;;;39.25;16.27;;;;;;;8.96;77.41;98498.66;1748014;82;20997;-68
2022/04/22 02:28:31;;;;;;;25.72;11.80;;;;;;;8.98;77.29;98497.46;1731991;82;21113;-68
2022/04/22 02:29:01;;;;;;;13.25;6.75;;;;;;;9.01;77.40;98500.25;1732061;81;21056;-69
2022/04/22 02:31:28;;;;;;;7.45;3.90;;;;;;;8.99;78.77;98500.45;1747874;82;21057;-70
2022/04/22 02:33:55;;;;;;;3.60;2.33;;;;;;;8.99;77.49;98502.27;1730623;81;21248;-68
2022/04/22 02:36:21;;;;;;;2.25;1.20;;;;;;;8.96;77.38;98502.63;1721034;82;21583;-68
2022/04/22 02:38:47;;;;;;;3.25;0.80;;;;;;;8.92;77.42;98502.66;1748496;81;21054;-68
2022/04/22 02:46:46;;;;;;;0.60;0.60;;;;;;;8.92;77.19;98502.66;1732983;82;21149;-69
2022/04/22 02:49:15;;;;;;;0.70;0.70;;;;;;;8.92;77.10;98506.64;1728186;82;21033;-68
2022/04/22 02:51:41;;;;;;;0.80;0.68;;;;;;;8.90;76.96;98501.53;1746090;82;21057;-69
2022/04/22 02:54:09;;;;;;;0.90;0.90;;;;;;;8.92;76.90;98510.62;1748395;82;21588;-68
2022/04/22 02:56:36;;;;;;;1.77;0.80;;;;;;;8.91;76.78;98513.80;1723593;82;20951;-68
2022/04/22 02:59:05;;;;;;;1.12;0.93;;;;;;;8.86;76.63;98520.66;1730912;81;20927;-69
2022/04/22 03:01:33;;;;;;;1.40;1.30;;;;;;;8.82;76.61;98523.33;1738863;82;20989;-68
2022/04/22 03:04:01;;;;;;;1.20;1.10;;;;;;;8.79;76.63;98528.99;1748769;81;21013;-68
2022/04/22 03:06:28;;;;;;;1.15;1.00;;;;;;;8.78;76.69;98532.67;1726686;82;21015;-68
2022/04/22 03:08:55;;;;;;;0.95;0.95;;;;;;;8.77;76.69;98530.52;1743075;82;21050;-70
2022/04/22 03:11:23;;;;;;;0.80;0.80;;;;;;;8.77;76.68;98530.52;1682518;85;20917;-69
2022/04/22 03:13:53;;;;;;;1.40;0.90;;;;;;;8.75;76.67;98530.37;1729666;83;21482;-69
2022/04/22 03:16:25;;;;;;;1.05;0.95;;;;;;;8.76;76.73;98533.36;1728896;82;21497;-68
2022/04/22 03:18:53;;;;;;;0.85;0.85;;;;;;;8.78;76.70;98534.00;1725606;83;20944;-68
2022/04/22 03:21:22;;;;;;;0.88;0.88;;;;;;;8.81;76.71;98541.59;1723921;83;20976;-68
2022/04/22 03:23:49;;;;;;;0.90;0.90;;;;;;;8.85;76.74;98540.22;1721389;83;21899;-68
2022/04/22 03:26:18;;;;;;;1.20;0.80;;;;;;;8.87;76.70;98540.84;1716415;83;21514;-69
2022/04/22 03:28:47;;;;;;;0.85;0.82;;;;;;;8.88;76.55;98544.66;1695600;83;21458;-69
2022/04/22 03:31:15;;;;;;;1.20;1.10;;;;;;;8.89;76.55;98549.47;1699504;83;21527;-68
2022/04/22 03:33:42;;;;;;;1.82;0.80;;;;;;;8.88;76.48;98538.53;1704593;82;21058;-69
2022/04/22 03:36:10;;;;;;;0.60;0.60;;;;;;;8.88;76.36;98539.86;1716166;83;20983;-69
2022/04/22 03:38:37;;;;;;;0.98;0.88;;;;;;;8.85;76.40;98542.37;1720555;83;21055;-69
2022/04/22 03:41:05;;;;;;;1.30;1.07;;;;;;;8.86;76.39;98541.38;1698616;83;20947;-69
2022/04/22 03:43:32;;;;;;;0.78;0.78;;;;;;;8.88;76.39;98547.81;1705489;83;21064;-69
2022/04/22 03:45:59;;;;;;;0.90;0.90;;;;;;;8.91;76.37;98557.56;1715282;83;21042;-69
2022/04/22 03:48:25;;;;;;;0.70;0.70;;;;;;;8.95;76.27;98557.51;1718587;83;21108;-70
2022/04/22 03:50:52;;;;;;;1.52;0.80;;;;;;;8.96;76.12;98553.03;1721335;83;21006;-68
2022/04/22 03:53:18;;;;;;;5.72;3.33;;;;;;;8.98;76.08;98552.34;1661027;85;21090;-71
2022/04/22 03:55:46;;;;;;;28.32;11.78;;;;;;;9.00;76.12;98555.13;1665170;85;21118;-68
2022/04/22 03:58:16;;;;;;;49.30;16.82;;;;;;;9.03;76.00;98549.96;1719955;82;21034;-68
2022/04/22 04:00:46;;;;;;;48.90;18.73;;;;;;;9.06;75.98;98547.78;1695016;82;21892;-68
2022/04/22 04:03:23;;;;;;;30.77;12.68;;;;;;;9.09;75.83;98549.24;1725593;82;22377;-68
2022/04/22 04:05:51;;;;;;;12.65;7.33;;;;;;;9.06;75.88;98547.78;1729894;82;21002;-69
2022/04/22 04:08:21;;;;;;;8.45;5.55;;;;;;;9.04;75.92;98552.95;1704887;82;21106;-69
2022/04/22 04:16:21;;;;;;;8.23;4.37;;;;;;;8.98;76.81;98564.28;1705717;82;20924;-68
2022/04/22 04:18:49;;;;;;;7.87;5.37;;;;;;;8.98;76.81;98560.30;1732518;81;21626;-68
2022/04/22 04:24:00;;;;;;;8.98;6.15;;;;;;;9.06;76.73;98557.56;1745447;82;21061;-68
2022/04/22 04:26:27;;;;;;;9.15;6.67;;;;;;;9.09;76.62;98550.56;1744027;82;21284;-68
2022/04/22 04:28:55;;;;;;;9.68;6.75;;;;;;;9.11;76.57;98551.20;1723689;82;21497;-69
2022/04/22 04:31:22;;;;;;;5.10;4.60;;;;;;;9.10;76.69;98552.20;1701484;82;20966;-68
2022/04/22 04:33:50;;;;;;;4.47;3.95;;;;;;;9.11;78.08;98552.03;1750771;82;21010;-70
2022/04/22 04:36:17;;;;;;;4.42;4.03;;;;;;;9.12;79.07;98552.86;1748793;82;20962;-68
2022/04/22 04:38:43;;;;;;;5.25;4.85;;;;;;;9.12;79.03;98553.69;1722298;83;21273;-69
2022/04/22 04:41:12;;;;;;;4.47;4.17;;;;;;;9.11;79.16;98556.51;1723720;81;21041;-68
2022/04/22 04:43:38;;;;;;;4.92;4.50;;;;;;;9.12;78.89;98549.70;1739033;82;20950;-68
2022/04/22 04:46:06;;;;;;;5.00;4.60;;;;;;;9.10;78.76;98548.22;1743208;81;21513;-69
2022/04/22 04:48:36;;;;;;;4.92;4.53;;;;;;;9.04;78.47;98547.64;1746984;82;21129;-69
2022/04/22 04:51:05;;;;;;;4.87;4.47;;;;;;;9.00;78.38;98545.02;1734168;82;21555;-69
2022/04/22 04:53:33;;;;;;;4.95;4.55;;;;;;;8.98;80.87;98551.84;1742663;82;21010;-69
2022/04/22 04:56:02;;;;;;;5.10;4.70;;;;;;;9.00;78.34;98544.52;1731908;81;20942;-69
2022/04/22 04:58:29;;;;;;;4.40;4.00;;;;;;;9.01;78.07;98551.48;1748638;82;21438;-69
2022/04/22 05:00:57;;;;;;;4.83;4.42;;;;;;;9.03;77.97;98557.42;1751351;82;21025;-70
2022/04/22 05:03:24;;;;;;;4.95;4.55;;;;;;;9.08;77.84;98549.73;1728427;82;21329;-69
2022/04/22 05:05:51;;;;;;;4.78;4.37;;;;;;;9.10;77.84;98549.55;1731908;81;21578;-69
2022/04/22 05:08:18;;;;;;;4.87;4.37;;;;;;;9.14;77.70;98553.49;1748309;82;20967;-68
2022/04/22 05:10:45;;;;;;;4.15;3.77;;;;;;;9.16;78.30;98554.13;1749902;82;21089;-69
2022/04/22 05:13:12;;;;;;;3.92;3.60;;;;;;;9.16;79.10;98550.97;1728882;81;20982;-69
2022/04/22 05:15:43;;;;;;;4.22;3.83;;;;;;;9.21;79.19;98560.53;1736567;82;20939;-70
2022/04/22 05:18:08;;;;;;;3.90;3.60;;;;;;;9.23;78.95;98562.49;1749544;81;21001;-68
2022/04/22 05:20:36;;;;;;;3.67;3.12;;;;;;;9.26;79.00;98567.94;1750214;82;21037;-68
2022/04/22 05:23:04;;;;;;;9.13;7.20;;;;;;;9.26;78.25;98565.28;1750487;82;21003;-69
2022/04/22 05:25:31;;;;;;;4.97;4.50;;;;;;;9.27;78.33;98567.77;1751616;82;20919;-69
2022/04/22 05:27:59;;;;;;;3.95;3.65;;;;;;;9.35;78.22;98567.34;1750787;82;21113;-69
2022/04/22 05:33:11;;;;;;;3.98;3.67;;;;;;;9.38;77.70;98554.54;1739730;81;21053;-69
2022/04/22 05:35:38;;;;;;;3.70;3.40;;;;;;;9.33;77.47;98558.75;1731001;82;21049;-68
2022/04/22 05:38:05;;;;;;;4.20;3.87;;;;;;;9.30;77.54;98562.59;1746708;82;21006;-69
2022/04/22 05:40:34;;;;;;;4.35;3.95;;;;;;;9.33;77.51;98567.55;1745352;82;21257;-68
2022/04/22 05:43:01;;;;;;;3.47;3.25;;;;;;;9.36;77.42;98577.77;1744359;81;21575;-68
2022/04/22 05:45:28;;;;;;;4.00;3.70;;;;;;;9.37;77.23;98579.92;1727211;82;20871;-69
2022/04/22 05:47:58;;;;;;;3.90;3.60;;;;;;;9.38;77.30;98578.92;1733341;82;20951;-68
2022/04/22 05:50:27;;;;;;;4.37;3.98;;;;;;;9.37;77.10;98580.75;1723779;82;20997;-68
2022/04/22 05:52:55;;;;;;;4.40;4.10;;;;;;;9.35;76.87;98581.95;1738546;82;21592;-69
2022/04/22 05:55:27;;;;;;;4.35;3.95;;;;;;;9.33;76.71;98586.13;1743886;81;21022;-68
2022/04/22 05:57:54;;;;;;;4.25;3.92;;;;;;;9.38;76.75;98582.91;1746673;82;21045;-71
2022/04/22 06:00:24;;;;;;;3.98;3.62;;;;;;;9.45;76.77;98589.95;1735679;82;20987;-69
2022/04/22 06:02:53;;;;;;;4.12;3.83;;;;;;;9.51;76.55;98591.05;1748406;81;20967;-68
2022/04/22 06:05:20;;;;;;;4.78;4.37;;;;;;;9.53;76.25;98585.05;1749860;82;21250;-70
2022/04/22 06:10:31;;;;;;;4.20;3.83;;;;;;;9.57;76.02;98596.95;1749279;82;21051;-70
2022/04/22 06:10:33;;;;;;;3.80;3.50;;;;;;;9.59;75.62;98593.61;1724409;82;21074;-69
2022/04/22 06:13:01;;;;;;;4.15;3.75;;;;;;;9.61;75.45;98597.72;1720937;83;20903;-69
2022/04/22 06:15:29;;;;;;;3.42;3.20;;;;;;;9.63;74.91;98596.19;1727660;82;20986;-69
2022/04/22 06:17:58;;;;;;;3.85;3.45;;;;;;;9.65;74.83;98600.31;1737612;81;21074;-70
2022/04/22 06:20:26;;;;;;;3.85;3.55;;;;;;;9.74;74.67;98605.02;1707406;82;21572;-69
2022/04/22 06:22:52;;;;;;;3.80;3.50;;;;;;;9.82;74.34;98597.78;1728717;82;20990;-70
2022/04/22 06:25:20;;;;;;;4.08;3.77;;;;;;;9.97;74.13;98598.23;1708196;82;21636;-72
2022/04/22 06:27:48;;;;;;;3.27;3.02;;;;;;;10.10;73.97;98592.56;1728127;82;21460;-71
2022/04/22 06:30:17;;;;;;;4.00;3.70;;;;;;;10.19;73.45;98597.29;1728582;82;21223;-69
2022/04/22 06:32:49;;;;;;;4.20;3.80;;;;;;;10.23;72.92;98601.20;1731156;82;20982;-69
2022/04/22 06:35:18;;;;;;;4.17;3.87;;;;;;;10.27;72.53;98609.13;1727738;82;20896;-67
2022/04/22 06:37:51;;;;;;;3.75;3.45;;;;;;;10.31;72.26;98619.19;1728154;82;20914;-69
2022/04/22 06:45:51;;;;;;;2.42;2.22;;;;;;;10.39;71.25;98619.57;1718063;82;21020;-70
2022/04/22 06:48:30;;;;;;;2.20;2.00;;;;;;;10.37;70.55;98621.61;1717180;83;20991;-68
2022/04/22 06:50:56;;;;;;;2.62;2.42;;;;;;;10.38;70.29;98625.39;1711094;82;21020;-69
2022/04/22 06:53:23;;;;;;;3.22;2.50;;;;;;;10.42;70.19;98617.37;1709094;80;20963;-69
2022/04/22 06:55:50;;;;;;;2.50;2.30;;;;;;;10.48;69.79;98613.13;1727316;82;21112;-69
2022/04/22 06:58:20;;;;;;;2.05;1.95;;;;;;;10.53;69.64;98610.72;1725873;80;20964;-71
2022/04/22 07:00:48;;;;;;;1.92;1.82;;;;;;;10.59;69.37;98611.27;1717122;83;21465;-69
2022/04/22 07:03:16;;;;;;;1.98;1.87;;;;;;;10.64;69.12;98615.50;1717959;81;20971;-69
2022/04/22 07:05:46;;;;;;;2.10;2.00;;;;;;;10.68;68.93;98614.63;1668831;84;21571;-69
2022/04/22 07:08:14;;;;;;;2.17;1.90;;;;;;;10.67;68.51;98615.63;1681638;84;21316;-68
2022/04/22 07:10:44;;;;;;;1.98;1.77;;;;;;;10.64;68.27;98619.49;1693147;84;21006;-69
2022/04/22 07:13:12;;;;;;;1.50;1.40;;;;;;;10.65;67.93;98619.82;1694505;84;21018;-70
2022/04/22 07:15:40;;;;;;;1.25;1.15;;;;;;;10.65;67.62;98622.48;1689596;84;20962;-68
2022/04/22 07:18:09;;;;;;;1.07;1.05;;;;;;;10.61;66.99;98619.07;1690933;84;21010;-69
2022/04/22 07:20:38;;;;;;;1.65;1.20;;;;;;;10.53;66.21;98620.03;1688568;84;20899;-70
2022/04/22 07:23:06;;;;;;;0.95;0.95;;;;;;;10.48;66.28;98631.21;1679719;84;21075;-67
2022/04/22 07:25:33;;;;;;;1.32;1.20;;;;;;;10.43;66.03;98630.13;1689591;84;21237;-69
2022/04/22 07:28:04;;;;;;;1.27;1.12;;;;;;;10.40;66.16;98635.33;1691799;84;20996;-68
2022/04/22 07:30:32;;;;;;;1.45;1.00;;;;;;;10.40;66.28;98630.54;1694295;84;21769;-70
2022/04/22 07:32:59;;;;;;;1.62;1.07;;;;;;;10.43;66.29;98634.12;1673422;84;21892;-68
2022/04/22 07:35:29;;;;;;;1.15;1.07;;;;;;;10.44;66.17;98630.46;1681178;84;21430;-68
2022/04/22 07:37:57;;;;;;;1.02;1.02;;;;;;;10.44;66.17;98633.95;1686685;84;20959;-69
2022/04/22 07:40:26;;;;;;;1.07;1.07;;;;;;;10.49;66.23;98644.01;1669004;84;21125;-68
2022/04/22 07:48:26;;;;;;;1.72;1.52;;;;;;;10.66;65.49;98627.30;1687596;83;21549;-67
2022/04/22 07:50:54;;;;;;;2.30;2.10;;;;;;;10.74;65.34;98632.48;1687969;83;20919;-65
2022/04/22 07:53:22;;;;;;;2.35;2.15;;;;;;;10.78;65.37;98631.08;1688207;83;20950;-66
2022/04/22 07:55:48;;;;;;;2.25;2.05;;;;;;;10.82;65.16;98630.49;1687293;84;21013;-66
2022/04/22 07:58:17;;;;;;;2.37;2.00;;;;;;;10.84;65.03;98627.16;1687520;83;21455;-66
2022/04/22 08:00:45;;;;;;;4.25;3.08;;;;;;;10.84;65.06;98632.98;1687160;83;20942;-67
2022/04/22 08:03:15;;;;;;;3.47;2.80;;;;;;;10.86;65.03;98633.10;1687288;83;20935;-66
2022/04/22 08:05:43;;;;;;;2.20;2.00;;;;;;;10.90;64.86;98627.70;1687446;84;20927;-69
2022/04/22 08:08:10;;;;;;;2.10;2.00;;;;;;;10.99;64.80;98626.55;1687646;83;21478;-68
2022/04/22 08:10:38;;;;;;;2.20;2.10;;;;;;;11.14;64.57;98627.27;1684672;83;20868;-66
2022/04/22 08:13:06;;;;;;;2.70;1.72;;;;;;;11.28;64.11;98629.52;1690128;84;21395;-67
2022/04/22 08:15:34;;;;;;;1.80;1.70;;;;;;;11.39;63.85;98632.16;1692369;84;20931;-69
2022/04/22 08:18:03;;;;;;;3.50;1.80;;;;;;;11.47;63.36;98633.33;1695495;84;21029;-68
2022/04/22 08:20:32;;;;;;;8.00;4.03;;;;;;;11.58;62.94;98633.59;1692098;83;20990;-68
2022/04/22 08:22:59;;;;;;;11.22;5.60;;;;;;;11.62;62.05;98636.19;1693103;84;22427;-70
2022/04/22 08:25:26;;;;;;;6.22;4.12;;;;;;;11.64;61.48;98642.13;1695959;83;20936;-69
2022/04/22 08:27:54;;;;;;;3.47;2.58;;;;;;;11.69;61.26;98636.23;1696238;83;20996;-72
2022/04/22 08:30:21;;;;;;;3.08;1.70;;;;;;;11.70;60.80;98637.89;1695293;84;21049;-69
2022/04/22 08:32:49;;;;;;;5.47;3.58;;;;;;;11.69;60.78;98636.23;1694800;84;20900;-70
2022/04/22 08:35:15;;;;;;;6.20;3.30;;;;;;;11.80;60.88;98634.34;1688891;83;21778;-66
2022/04/22 08:37:44;;;;;;;3.02;2.65;;;;;;;11.91;60.81;98629.80;1685525;83;21030;-70
2022/04/22 08:40:11;;;;;;;1.60;1.50;;;;;;;11.95;60.55;98628.36;1696012;83;21014;-69
2022/04/22 08:42:39;;;;;;;1.62;1.42;;;;;;;11.98;60.15;98627.14;1695503;83;20947;-67
2022/04/22 08:45:10;;;;;;;5.58;1.50;;;;;;;11.99;60.14;98633.59;1684505;84;21441;-66
2022/04/22 08:50:27;;;;;;;1.70;1.60;;;;;;;12.04;59.90;98628.51;1696641;83;20961;-68
2022/04/22 08:53:05;;;;;;;2.25;1.70;;;;;;;12.07;59.65;98630.75;1696157;83;20915;-67
2022/04/22 08:55:33;;;;;;;1.40;1.25;;;;;;;12.05;59.47;98636.80;1689198;83;21555;-70
2022/04/22 08:58:00;;;;;;;1.22;1.10;;;;;;;12.06;59.36;98638.45;1688331;84;21153;-70
2022/04/22 09:00:29;;;;;;;2.20;1.72;;;;;;;12.09;59.22;98638.06;1696097;83;21018;-68
2022/04/22 09:02:57;;;;;;;2.50;1.95;;;;;;;12.16;58.88;98635.40;1695646;84;20947;-70
2022/04/22 09:05:24;;;;;;;2.67;1.82;;;;;;;12.22;58.37;98632.77;1696128;83;20908;-69
2022/04/22 09:07:51;;;;;;;2.52;1.40;;;;;;;12.23;58.08;98634.90;1695475;84;21054;-70
2022/04/22 09:10:18;;;;;;;3.08;1.70;;;;;;;12.24;57.99;98636.56;1696692;83;21447;-68
2022/04/22 09:12:53;;;;;;;2.47;1.60;;;;;;;12.25;57.95;98637.67;1696002;83;20899;-68
2022/04/22 09:15:23;;;;;;;2.10;1.57;;;;;;;12.27;57.87;98632.16;1696539;83;21056;-68
2022/04/22 09:17:49;;;;;;;2.45;1.40;;;;;;;12.29;57.92;98636.27;1696258;83;20907;-67
2022/04/22 09:20:16;;;;;;;1.98;1.77;;;;;;;12.31;57.87;98636.87;1695409;84;21052;-68
2022/04/22 09:22:44;;;;;;;3.52;1.60;;;;;;;12.34;57.85;98637.81;1695742;84;21481;-67
2022/04/22 09:25:14;;;;;;;3.05;1.82;;;;;;;12.37;57.42;98634.75;1695749;84;21202;-67
2022/04/22 09:27:42;;;;;;;3.12;1.60;;;;;;;12.38;57.27;98636.91;1666507;84;20871;-68
2022/04/22 09:30:12;;;;;;;3.40;1.40;;;;;;;12.33;56.95;98642.83;1696651;83;20915;-67
2022/04/22 09:32:40;;;;;;;1.50;1.40;;;;;;;12.29;56.91;98644.27;1695557;84;20876;-67
2022/04/22 09:35:11;;;;;;;2.83;1.50;;;;;;;12.28;57.32;98646.61;1696411;83;20887;-68
2022/04/22 09:43:39;;;;;;;2.70;1.67;;;;;;;12.21;57.04;98656.45;1695189;84;20934;-67
2022/04/22 09:46:06;;;;;;;2.20;2.00;;;;;;;12.16;57.22;98656.73;1696262;83;20983;-69
2022/04/22 09:48:46;;;;;;;4.17;2.00;;;;;;;12.05;57.30;98663.45;1696306;83;20997;-69
2022/04/22 09:51:30;;;;;;;3.15;1.87;;;;;;;12.01;57.63;98659.56;1696697;83;20986;-69
2022/04/22 09:54:05;;;;;;;2.58;1.80;;;;;;;12.04;57.72;98663.16;1695554;84;20952;-66
2022/04/22 09:56:33;;;;;;;1.95;1.77;;;;;;;12.05;57.79;98665.30;1696202;83;22842;-68
2022/04/22 09:59:21;;;;;;;4.05;1.72;;;;;;;12.02;57.96;98659.85;1695566;84;20953;-68
2022/04/22 10:01:50;;;;;;;3.65;1.50;;;;;;;12.00;57.95;98657.08;1671726;84;20935;-69
2022/04/22 10:04:20;;;;;;;2.83;1.95;;;;;;;11.94;57.80;98666.68;1695402;84;21540;-67
2022/04/22 10:06:47;;;;;;;3.98;1.65;;;;;;;11.94;57.76;98671.22;1695360;84;20971;-67
2022/04/22 10:09:16;;;;;;;4.35;1.70;;;;;;;11.99;57.87;98670.91;1696058;83;20959;-68
2022/04/22 10:11:48;;;;;;;2.83;1.85;;;;;;;12.07;57.82;98670.73;1695457;84;20990;-68
2022/04/22 10:14:20;;;;;;;5.05;2.30;;;;;;;12.13;57.79;98672.62;1695592;84;20958;-67
2022/04/22 10:16:48;;;;;;;3.10;2.20;;;;;;;12.18;57.70;98671.51;1696697;83;21438;-68
2022/04/22 10:19:16;;;;;;;11.00;3.70;;;;;;;12.19;57.54;98669.16;1662642;85;20936;-68
2022/04/22 10:21:44;;;;;;;7.05;2.58;;;;;;;12.30;57.65;98673.09;1685331;85;21116;-68
2022/04/22 10:24:12;;;;;;;5.78;2.55;;;;;;;12.41;57.73;98677.83;1684441;85;21549;-69
2022/04/22 10:26:40;;;;;;;3.37;2.05;;;;;;;12.44;57.37;98679.27;1685091;84;20896;-69
2022/04/22 10:29:09;;;;;;;3.58;2.72;;;;;;;12.44;57.32;98684.09;1659333;85;20860;-68
2022/04/22 10:31:37;;;;;;;3.15;2.22;;;;;;;12.49;57.21;98692.86;1651204;85;20923;-67
2022/04/22 10:34:08;;;;;;;3.85;2.67;;;;;;;12.43;56.99;98693.65;1663550;85;21541;-69
2022/04/22 10:36:37;;;;;;;3.30;2.52;;;;;;;12.37;57.02;98697.94;1677526;85;20916;-68
2022/04/22 10:39:04;;;;;;;7.45;2.25;;;;;;;12.37;56.93;98692.60;1688348;85;20928;-69
2022/04/22 10:41:35;;;;;;;4.67;2.87;;;;;;;12.38;57.05;98688.39;1734685;82;21267;-68
2022/04/22 10:49:44;;;;;;;5.95;2.70;;;;;;;12.44;57.12;98694.77;1723535;82;20937;-68
2022/04/22 10:52:14;;;;;;;5.12;2.35;;;;;;;12.46;56.96;98695.41;1734687;82;21465;-67
2022/04/22 10:55:00;;;;;;;3.40;2.58;;;;;;;12.49;57.05;98689.65;1735241;82;21237;-68
2022/04/22 10:57:39;;;;;;;3.00;2.72;;;;;;;12.53;57.06;98694.91;1735201;82;20909;-65
2022/04/22 11:00:12;;;;;;;3.72;2.80;;;;;;;12.53;56.66;98698.91;1733867;82;20915;-70
2022/04/22 11:02:41;;;;;;;3.17;2.62;;;;;;;12.53;56.63;98698.08;1728443;82;21439;-70
2022/04/22 11:05:26;;;;;;;3.77;2.85;;;;;;;12.56;56.83;98700.35;1734953;82;20919;-67
2022/04/22 11:07:56;;;;;;;4.12;3.47;;;;;;;12.62;56.78;98706.23;1727755;82;21505;-69
2022/04/22 11:10:25;;;;;;;4.50;2.70;;;;;;;12.62;56.62;98704.89;1735097;82;20927;-70
2022/04/22 11:12:57;;;;;;;6.55;2.67;;;;;;;12.58;56.56;98703.13;1735300;82;20876;-66
2022/04/22 11:15:47;;;;;;;3.95;3.25;;;;;;;12.54;56.59;98699.20;1734996;82;20983;-68
2022/04/22 11:18:16;;;;;;;5.05;2.80;;;;;;;12.55;56.61;98687.52;1735034;82;21455;-67
2022/04/22 11:20:47;;;;;;;5.67;2.92;;;;;;;12.60;56.83;98685.58;1733071;82;21237;-69
2022/04/22 11:23:15;;;;;;;4.70;2.85;;;;;;;12.69;56.80;98684.38;1713475;82;20983;-69
2022/04/22 11:25:43;;;;;;;2.80;2.60;;;;;;;12.78;56.50;98685.30;1733154;82;21561;-67
2022/04/22 11:28:11;;;;;;;9.45;2.70;;;;;;;12.91;56.04;98687.16;1733806;80;21224;-67
2022/04/22 11:30:39;;;;;;;3.00;2.70;;;;;;;13.01;55.60;98687.07;1733039;81;20936;-67
2022/04/22 11:33:21;;;;;;;2.90;2.50;;;;;;;13.15;55.17;98683.93;1734141;80;21470;-68
2022/04/22 11:35:54;;;;;;;2.35;2.15;;;;;;;13.32;54.83;98687.81;1724480;82;20990;-69
2022/04/22 11:38:23;;;;;;;2.67;2.47;;;;;;;13.49;54.27;98686.88;1734701;80;20975;-67
2022/04/22 11:40:50;;;;;;;3.67;2.22;;;;;;;13.65;53.92;98677.60;1734035;80;20896;-68
2022/04/22 11:43:21;;;;;;;3.58;2.75;;;;;;;13.82;53.60;98684.16;1733037;82;21459;-67
2022/04/22 11:45:49;;;;;;;4.42;2.47;;;;;;;13.95;53.13;98682.75;1734002;80;21788;-68
2022/04/22 11:48:23;;;;;;;2.50;2.30;;;;;;;14.04;52.76;98682.84;1734588;80;20916;-68
2022/04/22 11:50:50;;;;;;;3.27;2.30;;;;;;;14.14;52.37;98679.20;1733245;82;20860;-67
2022/04/22 11:53:20;;;;;;;3.37;2.72;;;;;;;14.29;51.94;98674.39;1732977;82;21427;-68
2022/04/22 11:55:48;;;;;;;2.45;2.25;;;;;;;14.38;51.52;98671.81;1733169;82;20837;-67
2022/04/22 11:58:23;;;;;;;2.55;2.35;;;;;;;14.37;51.46;98671.50;1733081;82;21110;-70
2022/04/22 12:06:23;;;;;;;4.05;2.17;;;;;;;14.32;51.06;98690.56;1733892;80;20990;-69
2022/04/22 12:09:00;;;;;;;10.15;3.65;;;;;;;14.31;50.89;98691.11;1734008;80;21435;-67
2022/04/22 12:11:27;;;;;;;5.08;2.67;;;;;;;14.26;50.82;98688.73;1735055;80;21156;-69
2022/04/22 12:13:54;;;;;;;3.92;2.20;;;;;;;14.19;50.89;98690.91;1734663;80;20939;-67
2022/04/22 12:16:23;;;;;;;4.97;2.67;;;;;;;14.12;51.20;98688.78;1733884;80;20892;-66
2022/04/22 12:18:52;;;;;;;2.37;2.05;;;;;;;14.02;51.57;98693.77;1733782;82;20904;-67
2022/04/22 12:21:18;;;;;;;2.47;2.27;;;;;;;13.89;51.55;98689.79;1752211;81;21442;-67
2022/04/22 12:23:48;;;;;;;2.52;2.15;;;;;;;13.77;51.67;98683.94;1752221;81;21164;-68
2022/04/22 12:26:24;;;;;;;2.92;2.10;;;;;;;13.71;51.66;98680.79;1752647;80;20971;-66
2022/04/22 12:29:08;;;;;;;2.37;2.17;;;;;;;13.59;51.89;98673.41;1752128;81;21010;-66
2022/04/22 12:31:39;;;;;;;2.58;2.37;;;;;;;13.49;51.95;98674.86;1741388;80;20955;-69
2022/04/22 12:34:11;;;;;;;4.12;2.80;;;;;;;13.37;52.10;98675.19;1751958;80;21528;-68
2022/04/22 12:36:41;;;;;;;3.87;2.80;;;;;;;13.27;52.18;98671.58;1741270;81;21736;-69